Time;durP1;ratioP1;P1;durP2;ratioP2;P2;SDS_P1;SDS_P2;PMS_P1;PMS_P2;Temp;Humidity;BMP_temperature;BMP_pressure;BME280_temperature;BME280_humidity;BME280_pressure;Samples;Min_cycle;Max_cycle;Signal;HPM_P1;HPM_P2
2021/07/27 00:00:36;;;;;;;6.68;4.05;;;20.10;86.30;;;;;;5052053;28;20495;-70
2021/07/27 00:03:03;;;;;;;6.10;3.72;;;20.00;86.50;;;;;;5054257;28;20047;-69
2021/07/27 00:05:29;;;;;;;6.72;4.00;;;19.90;87.00;;;;;;5051592;28;20021;-70
2021/07/27 00:07:55;;;;;;;6.28;3.72;;;19.90;86.80;;;;;;5051880;28;20402;-69
2021/07/27 00:10:21;;;;;;;7.35;4.07;;;19.90;87.30;;;;;;5053036;28;20024;-70
2021/07/27 00:12:47;;;;;;;6.18;3.90;;;19.80;87.60;;;;;;5051675;28;20033;-70
2021/07/27 00:15:13;;;;;;;6.35;4.20;;;19.70;88.10;;;;;;5051397;28;20029;-70
2021/07/27 00:17:39;;;;;;;6.20;4.20;;;19.70;88.60;;;;;;5051610;28;20437;-70
2021/07/27 00:20:05;;;;;;;6.22;4.10;;;19.70;88.10;;;;;;5052872;28;20021;-70
2021/07/27 00:22:31;;;;;;;6.28;4.07;;;19.60;88.70;;;;;;5052804;28;20079;-70
2021/07/27 00:25:00;;;;;;;6.72;4.00;;;19.50;89.50;;;;;;5051084;28;20025;-70
2021/07/27 00:27:26;;;;;;;6.85;3.90;;;19.60;89.40;;;;;;5052838;28;20059;-70
2021/07/27 00:29:51;;;;;;;6.63;4.00;;;19.70;88.80;;;;;;5051481;28;20060;-70
2021/07/27 00:32:17;;;;;;;7.90;4.75;;;19.60;89.00;;;;;;5052273;28;20033;-70
2021/07/27 00:34:42;;;;;;;6.95;4.57;;;19.60;89.40;;;;;;5052250;28;20025;-69
2021/07/27 00:37:17;;;;;;;6.85;3.83;;;19.60;89.60;;;;;;5051249;28;20021;-70
2021/07/27 00:39:43;;;;;;;7.03;4.38;;;19.60;89.50;;;;;;5052450;28;20028;-70
2021/07/27 00:42:10;;;;;;;7.57;4.38;;;19.40;90.10;;;;;;5052396;28;20356;-70
2021/07/27 00:44:36;;;;;;;6.78;4.30;;;19.50;89.90;;;;;;5052163;28;20025;-69
2021/07/27 00:47:02;;;;;;;7.05;4.40;;;19.50;89.80;;;;;;5052334;28;20387;-70
2021/07/27 00:49:27;;;;;;;7.35;4.60;;;19.40;90.10;;;;;;5051000;28;20032;-70
2021/07/27 00:51:53;;;;;;;7.05;4.60;;;19.40;90.20;;;;;;5052228;28;20032;-70
2021/07/27 00:54:19;;;;;;;8.20;4.85;;;19.50;90.10;;;;;;5050672;28;20032;-69
2021/07/27 00:56:45;;;;;;;7.75;5.22;;;19.40;90.30;;;;;;5052236;28;20425;-70
2021/07/27 00:59:10;;;;;;;8.18;5.00;;;19.40;90.20;;;;;;5052098;28;20040;-69
2021/07/27 01:01:36;;;;;;;7.70;5.20;;;19.40;90.40;;;;;;5051957;28;20037;-69
2021/07/27 01:04:02;;;;;;;7.28;4.70;;;19.30;90.60;;;;;;5052072;28;20021;-70
2021/07/27 01:06:27;;;;;;;7.00;4.60;;;19.20;90.80;;;;;;5051707;28;20029;-69
2021/07/27 01:08:53;;;;;;;8.25;5.00;;;19.30;90.90;;;;;;5051927;28;20020;-70
2021/07/27 01:11:23;;;;;;;8.23;5.00;;;19.30;91.00;;;;;;5050662;28;20025;-69
2021/07/27 01:13:48;;;;;;;8.18;4.60;;;19.20;91.10;;;;;;5050667;28;20029;-70
2021/07/27 01:16:14;;;;;;;7.40;4.95;;;19.30;91.00;;;;;;5051607;28;20091;-70
2021/07/27 01:18:49;;;;;;;7.30;4.57;;;19.20;91.10;;;;;;5051738;28;20033;-69
2021/07/27 01:37:53;;;;;;;8.15;5.22;;;19.20;91.90;;;;;;5051801;28;20040;-70
2021/07/27 01:40:19;;;;;;;8.52;5.28;;;19.20;92.00;;;;;;5051660;28;20119;-70
2021/07/27 01:42:45;;;;;;;8.18;4.72;;;19.20;91.90;;;;;;5050847;28;20029;-70
2021/07/27 01:45:10;;;;;;;7.40;5.03;;;19.10;92.20;;;;;;5051278;28;20040;-69
2021/07/27 01:47:36;;;;;;;6.53;4.18;;;19.10;92.40;;;;;;5051556;28;20025;-70
2021/07/27 01:50:02;;;;;;;8.85;5.13;;;19.20;92.20;;;;;;5051492;28;20398;-70
2021/07/27 01:52:27;;;;;;;7.32;4.68;;;19.00;92.70;;;;;;5051468;28;20044;-70
2021/07/27 01:54:55;;;;;;;7.93;4.88;;;19.10;92.50;;;;;;5051174;28;20033;-70
2021/07/27 01:57:22;;;;;;;7.10;4.43;;;19.10;92.60;;;;;;5051502;28;20557;-70
2021/07/27 01:59:57;;;;;;;9.25;4.68;;;19.00;92.80;;;;;;5050169;28;20074;-70
2021/07/27 02:02:22;;;;;;;9.02;5.10;;;18.80;93.60;;;;;;5051208;28;20037;-70
2021/07/27 02:04:48;;;;;;;7.40;4.70;;;18.70;93.90;;;;;;5051036;28;20143;-70
2021/07/27 02:07:13;;;;;;;9.05;4.35;;;18.70;93.80;;;;;;5049989;28;20027;-70
2021/07/27 02:09:42;;;;;;;7.53;4.03;;;18.90;93.60;;;;;;5041527;28;20056;-70
2021/07/27 02:12:16;;;;;;;8.18;4.85;;;18.90;93.60;;;;;;5040898;28;20021;-70
2021/07/27 02:17:25;;;;;;;7.70;5.00;;;18.60;94.30;;;;;;5051467;28;20410;-70
2021/07/27 02:19:51;;;;;;;9.45;5.15;;;18.80;94.00;;;;;;5049968;28;20021;-70
2021/07/27 02:22:17;;;;;;;8.93;5.82;;;18.80;94.00;;;;;;5051143;28;20021;-70
2021/07/27 02:24:46;;;;;;;10.15;6.13;;;18.90;93.70;;;;;;5050853;28;20032;-70
2021/07/27 02:27:12;;;;;;;9.45;5.97;;;18.90;93.60;;;;;;5051171;28;20025;-70
2021/07/27 02:29:37;;;;;;;10.80;5.45;;;18.80;93.80;;;;;;5051110;28;20025;-70
2021/07/27 02:32:04;;;;;;;8.95;5.82;;;18.90;93.50;;;;;;5051063;28;20044;-70
2021/07/27 02:34:32;;;;;;;7.78;5.03;;;18.90;93.50;;;;;;5050767;28;20025;-70
2021/07/27 02:36:58;;;;;;;8.88;4.80;;;19.00;93.40;;;;;;5049715;28;20017;-70
2021/07/27 02:39:24;;;;;;;9.68;5.60;;;19.10;93.20;;;;;;5051015;28;20086;-70
2021/07/27 02:41:49;;;;;;;9.60;5.28;;;19.10;93.10;;;;;;5049715;28;20021;-69
2021/07/27 02:44:15;;;;;;;9.70;6.07;;;19.00;93.20;;;;;;5050825;28;20395;-67
2021/07/27 02:46:40;;;;;;;9.15;5.72;;;19.10;93.00;;;;;;5050906;28;20040;-70
2021/07/27 02:49:06;;;;;;;9.52;5.15;;;19.30;92.60;;;;;;5050960;28;20053;-70
2021/07/27 02:51:31;;;;;;;11.73;6.32;;;19.40;92.30;;;;;;5050870;28;20036;-70
2021/07/27 02:53:57;;;;;;;9.77;5.82;;;19.30;92.60;;;;;;5051940;28;20051;-70
2021/07/27 02:56:23;;;;;;;9.75;5.30;;;19.20;92.90;;;;;;5054192;28;20399;-69
2021/07/27 02:58:48;;;;;;;9.30;5.90;;;19.30;92.60;;;;;;5054384;28;20044;-70
2021/07/27 03:01:14;;;;;;;11.38;6.55;;;19.40;92.40;;;;;;5054358;28;20108;-69
2021/07/27 03:03:39;;;;;;;10.18;6.75;;;19.30;92.40;;;;;;5054328;28;20111;-70
2021/07/27 03:06:05;;;;;;;11.95;6.10;;;19.30;92.40;;;;;;5054022;28;20083;-70
2021/07/27 03:11:12;;;;;;;10.23;5.90;;;19.50;91.90;;;;;;5054295;28;20410;-70
2021/07/27 03:13:37;;;;;;;10.30;6.68;;;19.30;92.50;;;;;;5052862;28;20106;-70
2021/07/27 03:16:03;;;;;;;11.13;7.30;;;19.40;92.30;;;;;;5053876;28;20483;-70
2021/07/27 03:18:29;;;;;;;10.77;7.45;;;19.10;93.10;;;;;;5053989;28;20123;-70
2021/07/27 03:20:54;;;;;;;9.30;6.03;;;18.90;93.70;;;;;;5053971;28;20032;-70
2021/07/27 03:23:28;;;;;;;12.38;7.70;;;19.50;92.30;;;;;;5053906;28;20025;-70
2021/07/27 03:25:53;;;;;;;12.13;7.45;;;19.10;93.10;;;;;;5052489;28;20150;-69
2021/07/27 03:28:19;;;;;;;12.00;7.43;;;18.90;93.80;;;;;;5053921;28;20056;-70
2021/07/27 03:30:45;;;;;;;11.38;7.18;;;19.00;93.60;;;;;;5052650;28;20028;-70
2021/07/27 03:33:13;;;;;;;12.07;7.55;;;19.10;93.40;;;;;;5052454;28;20437;-70
2021/07/27 03:35:39;;;;;;;12.15;8.10;;;19.00;93.60;;;;;;5052276;28;20033;-70
2021/07/27 03:38:05;;;;;;;13.27;8.75;;;19.20;93.30;;;;;;5052446;28;20025;-69
2021/07/27 03:40:30;;;;;;;11.43;8.00;;;19.10;93.60;;;;;;5053634;28;20096;-70
2021/07/27 03:42:56;;;;;;;15.55;10.18;;;19.10;93.50;;;;;;5052350;28;20029;-70
2021/07/27 03:45:21;;;;;;;14.27;9.38;;;19.20;93.20;;;;;;5053287;28;20025;-70
2021/07/27 03:47:47;;;;;;;15.32;9.63;;;19.40;92.80;;;;;;5052219;28;20390;-70
2021/07/27 03:50:12;;;;;;;11.90;7.80;;;19.10;93.40;;;;;;5052219;28;20032;-70
2021/07/27 03:52:38;;;;;;;14.88;9.60;;;19.70;91.90;;;;;;5052130;28;20051;-70
2021/07/27 03:55:04;;;;;;;14.40;9.77;;;19.60;92.40;;;;;;5051948;28;20096;-70
2021/07/27 03:57:30;;;;;;;14.90;9.75;;;19.80;91.90;;;;;;5053245;28;20032;-70
2021/07/27 03:59:55;;;;;;;11.10;6.97;;;20.00;91.10;;;;;;5053323;28;20021;-70
2021/07/27 04:02:21;;;;;;;14.48;9.10;;;19.90;91.20;;;;;;5053041;28;20039;-69
2021/07/27 04:04:46;;;;;;;17.20;10.05;;;19.70;91.60;;;;;;5051569;28;20052;-70
2021/07/27 04:07:12;;;;;;;16.90;10.70;;;19.80;91.90;;;;;;5052633;28;20028;-69
2021/07/27 04:09:38;;;;;;;12.18;7.72;;;19.90;91.50;;;;;;5051409;28;20029;-69
2021/07/27 04:12:04;;;;;;;13.55;9.02;;;20.00;90.90;;;;;;5052653;28;20021;-70
2021/07/27 04:14:29;;;;;;;15.15;9.60;;;19.90;91.40;;;;;;5044320;28;20017;-69
2021/07/27 04:16:56;;;;;;;17.88;12.18;;;20.30;90.50;;;;;;5051724;28;20499;-70
2021/07/27 04:19:21;;;;;;;18.00;11.07;;;20.10;90.80;;;;;;5047472;28;20075;-70
2021/07/27 04:21:48;;;;;;;17.10;11.00;;;20.40;89.60;;;;;;5043642;28;20064;-70
2021/07/27 04:24:13;;;;;;;17.55;11.60;;;20.60;88.80;;;;;;5035432;28;20405;-68
2021/07/27 04:26:39;;;;;;;15.82;10.15;;;20.70;88.80;;;;;;5045277;28;20078;-70
2021/07/27 04:29:04;;;;;;;17.50;11.32;;;20.70;88.40;;;;;;5041239;28;20049;-70
2021/07/27 04:31:30;;;;;;;19.95;12.02;;;20.60;89.00;;;;;;5025241;28;20030;-69
2021/07/27 04:33:56;;;;;;;19.17;12.70;;;20.50;89.60;;;;;;5025021;28;20053;-70
2021/07/27 04:36:21;;;;;;;17.75;12.00;;;20.50;90.00;;;;;;5025029;28;20561;-70
2021/07/27 04:38:47;;;;;;;21.27;13.38;;;20.60;89.70;;;;;;5025415;28;20068;-69
2021/07/27 04:41:13;;;;;;;20.23;13.45;;;20.70;88.90;;;;;;5025343;28;20030;-73
2021/07/27 04:43:39;;;;;;;21.70;14.57;;;20.40;89.90;;;;;;5026270;28;20048;-69
2021/07/27 04:46:06;;;;;;;23.48;14.98;;;20.40;90.10;;;;;;5025741;28;20534;-68
2021/07/27 04:48:31;;;;;;;18.27;12.60;;;20.00;91.10;;;;;;5025426;28;20056;-70
2021/07/27 04:50:58;;;;;;;21.65;14.27;;;19.90;91.30;;;;;;5024877;28;20076;-70
2021/07/27 04:53:24;;;;;;;22.85;14.82;;;19.70;91.80;;;;;;5026538;28;20033;-69
2021/07/27 04:56:00;;;;;;;20.75;14.35;;;19.50;92.50;;;;;;5025662;28;20022;-69
2021/07/27 04:58:26;;;;;;;20.85;13.73;;;19.50;92.60;;;;;;5025074;28;20025;-70
2021/07/27 05:00:52;;;;;;;22.23;15.32;;;19.40;92.80;;;;;;5026067;28;20593;-70
2021/07/27 05:03:17;;;;;;;21.58;15.02;;;19.40;93.00;;;;;;5024693;28;20036;-70
2021/07/27 05:05:43;;;;;;;18.50;12.57;;;19.60;92.80;;;;;;5025719;28;20040;-70
2021/07/27 05:08:08;;;;;;;22.08;14.20;;;19.90;92.00;;;;;;5025084;28;20503;-70
2021/07/27 05:10:34;;;;;;;22.00;15.02;;;19.90;91.80;;;;;;5024813;28;20124;-70
2021/07/27 05:12:59;;;;;;;22.98;15.63;;;19.70;92.60;;;;;;5024916;28;20021;-70
2021/07/27 05:15:25;;;;;;;21.40;14.45;;;19.60;92.70;;;;;;5025472;28;20163;-72
2021/07/27 05:18:02;;;;;;;24.60;16.67;;;19.70;92.30;;;;;;5023816;28;20036;-71
2021/07/27 05:20:28;;;;;;;22.15;14.60;;;19.80;92.40;;;;;;5025728;28;20021;-74
2021/07/27 05:22:54;;;;;;;23.73;16.50;;;19.70;92.50;;;;;;5024436;28;20048;-75
2021/07/27 05:25:21;;;;;;;24.02;16.40;;;20.20;91.40;;;;;;5025460;28;20064;-73
2021/07/27 05:27:46;;;;;;;24.02;17.60;;;20.10;91.70;;;;;;5025716;28;20061;-72
2021/07/27 05:30:13;;;;;;;21.58;15.15;;;19.80;92.20;;;;;;5026036;28;20053;-70
2021/07/27 05:32:39;;;;;;;19.00;13.82;;;19.70;92.60;;;;;;5025819;28;20068;-70
2021/07/27 05:35:06;;;;;;;19.00;13.98;;;20.00;91.80;;;;;;5020544;28;20400;-69
2021/07/27 05:37:31;;;;;;;19.27;13.23;;;20.20;91.30;;;;;;5041279;28;20036;-69
2021/07/27 05:39:57;;;;;;;20.55;14.90;;;20.40;90.90;;;;;;5045014;28;20098;-68
2021/07/27 05:42:23;;;;;;;19.73;14.63;;;20.50;90.50;;;;;;5043517;28;20371;-70
2021/07/27 05:44:48;;;;;;;22.10;15.15;;;20.50;90.50;;;;;;5045044;28;20025;-69
2021/07/27 05:47:14;;;;;;;19.52;14.63;;;20.50;90.10;;;;;;5043930;28;20087;-69
2021/07/27 05:49:39;;;;;;;19.30;14.43;;;20.60;90.00;;;;;;5044248;28;20032;-72
2021/07/27 05:52:06;;;;;;;19.00;14.23;;;20.70;89.00;;;;;;5045030;28;20025;-70
2021/07/27 05:54:32;;;;;;;19.02;14.10;;;20.80;88.50;;;;;;5044151;28;20100;-69
2021/07/27 05:56:57;;;;;;;17.75;13.77;;;20.80;88.40;;;;;;5044209;28;20100;-70
2021/07/27 05:59:23;;;;;;;19.45;14.30;;;21.00;87.40;;;;;;5044673;28;20055;-70
2021/07/27 06:01:49;;;;;;;18.58;13.50;;;21.10;86.80;;;;;;5044959;28;20033;-70
2021/07/27 06:04:16;;;;;;;19.17;13.95;;;21.10;87.10;;;;;;5044775;28;20427;-68
2021/07/27 06:06:41;;;;;;;19.83;14.07;;;21.10;86.70;;;;;;5045707;28;20156;-72
2021/07/27 06:09:10;;;;;;;17.98;13.13;;;21.20;86.90;;;;;;5045036;28;20437;-69
2021/07/27 06:11:37;;;;;;;19.02;14.07;;;21.20;86.10;;;;;;5043860;28;20183;-71
2021/07/27 06:14:09;;;;;;;19.65;13.68;;;21.20;86.00;;;;;;5045100;28;20025;-70
2021/07/27 06:16:38;;;;;;;21.52;13.80;;;21.30;85.50;;;;;;5044870;28;20025;-71
2021/07/27 06:19:05;;;;;;;20.77;14.82;;;21.50;85.50;;;;;;5044982;28;20061;-71
2021/07/27 06:21:31;;;;;;;20.50;14.93;;;21.60;84.70;;;;;;5043340;28;20116;-65
2021/07/27 06:23:56;;;;;;;27.25;15.13;;;21.70;84.40;;;;;;5044872;28;20107;-65
2021/07/27 06:26:22;;;;;;;22.90;14.15;;;21.80;84.00;;;;;;5045061;28;20493;-69
2021/07/27 06:28:47;;;;;;;23.00;13.63;;;21.90;83.40;;;;;;5072510;22;20052;-71
2021/07/27 06:31:13;;;;;;;22.17;13.75;;;22.00;83.40;;;;;;5073105;28;20035;-72
2021/07/27 06:33:43;;;;;;;20.20;14.52;;;22.00;82.80;;;;;;5074283;28;20452;-71
2021/07/27 06:36:09;;;;;;;18.52;13.63;;;22.10;82.60;;;;;;5074291;28;20013;-70
2021/07/27 06:38:35;;;;;;;22.50;12.88;;;22.20;82.10;;;;;;5073425;28;20033;-69
2021/07/27 06:41:04;;;;;;;16.92;12.52;;;22.30;81.70;;;;;;5073461;28;20052;-69
2021/07/27 06:43:30;;;;;;;16.85;11.55;;;22.30;81.20;;;;;;5074767;28;20035;-70
2021/07/27 06:45:56;;;;;;;16.05;11.82;;;22.30;81.00;;;;;;5074425;28;20096;-69
2021/07/27 06:48:25;;;;;;;16.75;11.75;;;22.30;80.80;;;;;;5074622;28;20067;-70
2021/07/27 06:50:51;;;;;;;18.10;12.07;;;22.30;80.90;;;;;;5073294;28;20024;-70
2021/07/27 06:53:17;;;;;;;17.58;12.32;;;22.40;80.30;;;;;;5074567;28;20154;-70
2021/07/27 06:55:43;;;;;;;17.63;12.00;;;22.40;80.00;;;;;;5074167;28;20033;-70
2021/07/27 06:58:09;;;;;;;16.35;11.68;;;22.50;79.80;;;;;;5073050;28;20035;-70
2021/07/27 07:00:34;;;;;;;18.27;11.13;;;22.50;79.50;;;;;;5073200;28;20029;-70
2021/07/27 07:03:01;;;;;;;16.38;11.40;;;22.60;79.00;;;;;;5074421;28;20367;-70
2021/07/27 07:05:26;;;;;;;14.30;10.55;;;22.60;78.80;;;;;;5073049;28;20382;-70
2021/07/27 07:07:52;;;;;;;15.48;11.73;;;22.70;79.60;;;;;;5072973;28;20025;-71
2021/07/27 07:10:17;;;;;;;15.20;11.27;;;22.70;78.70;;;;;;5072871;28;20573;-71
2021/07/27 07:12:43;;;;;;;14.98;11.10;;;22.60;78.40;;;;;;5074344;28;20025;-70
2021/07/27 07:15:09;;;;;;;17.73;11.55;;;22.70;78.40;;;;;;5072641;28;20027;-70
2021/07/27 07:17:35;;;;;;;16.00;11.13;;;22.70;78.10;;;;;;5072769;28;20111;-71
2021/07/27 07:20:00;;;;;;;15.90;11.38;;;22.70;78.10;;;;;;5074072;28;20120;-70
2021/07/27 07:22:29;;;;;;;16.42;11.63;;;22.70;78.30;;;;;;5074121;28;20020;-70
2021/07/27 07:24:55;;;;;;;17.65;12.60;;;22.60;78.80;;;;;;5072274;28;20474;-70
2021/07/27 07:27:20;;;;;;;18.63;12.90;;;22.60;78.90;;;;;;5072781;28;20027;-70
2021/07/27 07:29:46;;;;;;;16.40;12.02;;;22.60;78.80;;;;;;5073812;28;20486;-70
2021/07/27 07:32:11;;;;;;;16.98;12.32;;;22.60;78.90;;;;;;5072269;28;20028;-70
2021/07/27 07:34:37;;;;;;;16.17;11.25;;;22.70;78.60;;;;;;5072276;28;20027;-70
2021/07/27 07:37:05;;;;;;;17.92;11.40;;;22.80;78.20;;;;;;5073654;28;20032;-71
2021/07/27 07:39:31;;;;;;;17.60;12.68;;;22.70;78.00;;;;;;5072321;28;20020;-70
2021/07/27 07:41:58;;;;;;;18.30;12.80;;;22.80;77.90;;;;;;5072742;28;20023;-70
2021/07/27 07:44:24;;;;;;;18.15;13.60;;;22.80;77.50;;;;;;5073412;28;20017;-70
2021/07/27 07:46:50;;;;;;;16.95;12.88;;;22.70;77.80;;;;;;5072345;28;20393;-70
2021/07/27 07:49:15;;;;;;;19.50;13.18;;;22.80;78.00;;;;;;5072181;28;20031;-71
2021/07/27 07:51:46;;;;;;;17.30;12.25;;;22.80;77.50;;;;;;5072101;28;20025;-70
2021/07/27 07:54:12;;;;;;;20.63;14.68;;;22.80;77.70;;;;;;5073432;28;20059;-71
2021/07/27 07:56:43;;;;;;;19.75;14.93;;;22.80;77.70;;;;;;5073470;28;20028;-70
2021/07/27 07:59:09;;;;;;;18.48;13.57;;;23.00;77.40;;;;;;5073262;28;20501;-70
2021/07/27 08:01:34;;;;;;;18.33;13.65;;;23.00;77.00;;;;;;5073312;28;20036;-70
2021/07/27 08:04:00;;;;;;;18.50;14.15;;;22.90;77.00;;;;;;5071895;28;20138;-70
2021/07/27 08:06:26;;;;;;;20.42;15.75;;;23.00;77.20;;;;;;5071680;28;20024;-71
2021/07/27 08:08:52;;;;;;;19.23;14.30;;;23.10;76.20;;;;;;5071733;28;20032;-70
2021/07/27 08:11:17;;;;;;;18.98;14.25;;;23.20;75.70;;;;;;5073412;28;20096;-70
2021/07/27 08:13:43;;;;;;;18.95;13.90;;;23.40;75.40;;;;;;5073097;28;20036;-70
2021/07/27 08:16:09;;;;;;;18.90;14.10;;;23.50;74.50;;;;;;5072747;28;20025;-70
2021/07/27 08:18:35;;;;;;;19.30;14.25;;;23.50;74.10;;;;;;5071486;28;20036;-70
2021/07/27 08:21:00;;;;;;;17.98;14.32;;;23.60;73.60;;;;;;5071594;28;20138;-71
2021/07/27 08:23:26;;;;;;;19.30;14.70;;;23.60;73.50;;;;;;5071698;28;20131;-70
2021/07/27 08:25:51;;;;;;;18.73;14.68;;;23.60;73.40;;;;;;5071244;28;20089;-70
2021/07/27 08:28:17;;;;;;;21.45;15.48;;;23.50;73.40;;;;;;5071290;28;20520;-71
2021/07/27 08:30:43;;;;;;;20.27;14.23;;;23.60;73.40;;;;;;5072214;28;20029;-68
2021/07/27 08:33:08;;;;;;;16.95;13.50;;;23.60;73.40;;;;;;5071385;28;20036;-70
2021/07/27 08:35:34;;;;;;;17.13;12.70;;;23.60;73.80;;;;;;5072399;28;20392;-70
2021/07/27 08:37:59;;;;;;;19.30;14.07;;;23.60;73.70;;;;;;5072348;28;20025;-70
2021/07/27 08:40:25;;;;;;;17.92;13.77;;;23.70;73.50;;;;;;5072617;28;20044;-70
2021/07/27 08:42:50;;;;;;;15.48;12.48;;;23.70;72.90;;;;;;5071212;28;20557;-70
2021/07/27 08:45:16;;;;;;;17.05;13.32;;;23.70;73.10;;;;;;5072059;28;20027;-70
2021/07/27 08:47:47;;;;;;;16.92;13.05;;;23.70;72.50;;;;;;5072349;28;20032;-70
2021/07/27 08:50:13;;;;;;;15.03;12.17;;;23.80;72.30;;;;;;5072319;28;20024;-70
2021/07/27 08:52:39;;;;;;;14.93;11.38;;;24.00;72.30;;;;;;5072053;28;20024;-70
2021/07/27 08:55:06;;;;;;;15.25;11.85;;;24.00;72.10;;;;;;5049909;28;20487;-70
2021/07/27 08:57:31;;;;;;;15.43;12.43;;;24.10;71.90;;;;;;5051706;28;20028;-70
2021/07/27 08:59:57;;;;;;;15.52;12.10;;;24.00;71.00;;;;;;5048972;28;20028;-70
2021/07/27 09:02:29;;;;;;;15.15;11.25;;;24.00;70.80;;;;;;5052073;28;20029;-70
2021/07/27 09:05:14;;;;;;;14.93;11.93;;;24.00;71.50;;;;;;5051425;28;20410;-70
2021/07/27 09:07:40;;;;;;;15.02;11.60;;;24.00;70.90;;;;;;5052046;28;20025;-70
2021/07/27 09:10:16;;;;;;;12.55;10.25;;;24.00;71.20;;;;;;5051982;28;20099;-70
2021/07/27 09:12:54;;;;;;;15.38;11.80;;;24.00;72.50;;;;;;5050791;28;20044;-70
2021/07/27 09:15:23;;;;;;;13.55;10.20;;;24.00;71.50;;;;;;5051655;28;20372;-71
2021/07/27 09:17:53;;;;;;;13.85;10.80;;;24.00;71.40;;;;;;5051669;28;20108;-68
2021/07/27 09:20:28;;;;;;;14.55;10.63;;;24.00;71.40;;;;;;5051943;28;20020;-70
2021/07/27 09:22:54;;;;;;;13.70;10.52;;;24.00;71.40;;;;;;5051848;28;20044;-70
2021/07/27 09:25:25;;;;;;;14.57;9.35;;;24.00;71.80;;;;;;5051547;28;20431;-71
2021/07/27 09:28:05;;;;;;;13.95;10.73;;;24.00;71.30;;;;;;5051761;28;20049;-72
2021/07/27 09:30:31;;;;;;;13.45;10.63;;;23.90;71.40;;;;;;5051823;28;20033;-71
2021/07/27 09:33:00;;;;;;;12.80;10.27;;;23.90;71.20;;;;;;5051786;28;20028;-70
2021/07/27 09:35:29;;;;;;;14.00;10.43;;;23.90;71.30;;;;;;5051361;28;20052;-69
2021/07/27 09:38:09;;;;;;;12.85;10.45;;;24.00;70.90;;;;;;5050217;28;20021;-69
2021/07/27 09:40:37;;;;;;;13.88;10.45;;;24.00;70.50;;;;;;5051642;28;20021;-71
2021/07/27 09:43:03;;;;;;;12.15;9.40;;;24.10;70.80;;;;;;5051898;28;20037;-70
2021/07/27 09:45:29;;;;;;;11.93;9.77;;;24.10;71.00;;;;;;5051315;28;20429;-71
2021/07/27 09:47:55;;;;;;;12.98;9.73;;;24.10;70.30;;;;;;5051450;28;20021;-70
2021/07/27 09:50:25;;;;;;;14.18;10.07;;;24.10;70.30;;;;;;5051542;28;20036;-71
2021/07/27 09:52:51;;;;;;;12.35;9.88;;;24.00;70.10;;;;;;5051533;28;20025;-71
2021/07/27 09:55:21;;;;;;;13.63;10.35;;;24.10;70.20;;;;;;5051151;28;20029;-70
2021/07/27 09:57:46;;;;;;;13.35;9.50;;;24.00;70.30;;;;;;5051435;28;20025;-71
2021/07/27 10:00:14;;;;;;;11.40;9.23;;;24.00;70.60;;;;;;5050117;28;20036;-70
2021/07/27 10:02:42;;;;;;;13.00;9.40;;;24.00;70.50;;;;;;5050230;28;20047;-71
2021/07/27 10:05:10;;;;;;;12.05;9.23;;;24.10;70.20;;;;;;5053682;28;20025;-70
2021/07/27 10:07:36;;;;;;;12.57;9.35;;;24.20;69.80;;;;;;5055416;28;20021;-70
2021/07/27 10:10:09;;;;;;;13.60;9.10;;;24.20;69.60;;;;;;5055344;28;20021;-71
2021/07/27 10:12:36;;;;;;;11.35;8.68;;;24.30;70.10;;;;;;5055405;28;20041;-70
2021/07/27 10:15:14;;;;;;;12.55;9.05;;;24.30;69.90;;;;;;5055049;28;20490;-70
2021/07/27 10:17:53;;;;;;;11.73;8.93;;;24.30;70.10;;;;;;5053802;28;20064;-71
2021/07/27 10:20:26;;;;;;;10.90;7.63;;;24.30;69.80;;;;;;5053930;28;20052;-70
2021/07/27 10:22:53;;;;;;;10.30;7.75;;;24.30;70.60;;;;;;5055459;28;20032;-71
2021/07/27 10:25:20;;;;;;;10.25;7.72;;;24.30;70.90;;;;;;5054934;28;20509;-69
2021/07/27 10:27:53;;;;;;;10.88;7.30;;;24.30;70.50;;;;;;5055154;28;20040;-69
2021/07/27 10:30:38;;;;;;;11.13;8.40;;;24.30;70.60;;;;;;5054877;28;20029;-69
2021/07/27 10:33:04;;;;;;;10.23;7.68;;;24.30;70.20;;;;;;5055205;28;20375;-70
2021/07/27 10:35:32;;;;;;;11.30;8.30;;;24.30;69.40;;;;;;5053356;28;20029;-70
2021/07/27 10:38:36;;;;;;;10.30;7.05;;;24.40;70.00;;;;;;5054723;28;20529;-70
2021/07/27 10:41:16;;;;;;;9.50;6.97;;;24.40;69.60;;;;;;5042751;28;20166;-70
2021/07/27 10:43:42;;;;;;;11.68;7.95;;;24.40;70.00;;;;;;5054871;28;20020;-69
2021/07/27 10:46:10;;;;;;;10.90;6.82;;;24.40;69.80;;;;;;5053178;28;20033;-70
2021/07/27 10:48:38;;;;;;;10.93;7.78;;;24.50;70.30;;;;;;5054624;28;20024;-69
2021/07/27 10:51:04;;;;;;;11.25;7.43;;;24.50;70.00;;;;;;5054571;28;20098;-70
2021/07/27 10:53:34;;;;;;;11.65;8.27;;;24.50;69.70;;;;;;5053361;28;20091;-69
2021/07/27 10:56:10;;;;;;;12.35;8.82;;;24.50;69.20;;;;;;5053013;28;20021;-69
2021/07/27 10:58:36;;;;;;;12.55;8.05;;;24.50;68.80;;;;;;5053129;28;20405;-69
2021/07/27 11:01:09;;;;;;;12.35;7.75;;;24.50;68.60;;;;;;5054547;28;20076;-70
2021/07/27 11:03:35;;;;;;;10.63;7.90;;;24.50;68.20;;;;;;5053817;28;20036;-69
2021/07/27 11:06:04;;;;;;;10.05;7.03;;;24.60;68.20;;;;;;5052798;28;20028;-70
2021/07/27 11:08:31;;;;;;;10.77;7.50;;;24.60;68.90;;;;;;5054317;28;20021;-70
2021/07/27 11:11:10;;;;;;;10.68;7.30;;;24.60;68.80;;;;;;5053016;28;20025;-70
2021/07/27 11:13:36;;;;;;;11.32;8.40;;;24.70;70.20;;;;;;5052911;28;20033;-69
2021/07/27 11:16:02;;;;;;;10.00;7.32;;;24.70;68.20;;;;;;5053867;28;20036;-70
2021/07/27 11:18:29;;;;;;;10.35;6.90;;;24.70;68.40;;;;;;5052834;28;20402;-70
2021/07/27 11:20:56;;;;;;;9.95;7.07;;;24.80;68.80;;;;;;5054243;28;20074;-70
2021/07/27 11:23:22;;;;;;;9.48;7.18;;;24.70;68.70;;;;;;5054084;28;20032;-70
2021/07/27 11:25:52;;;;;;;12.40;8.85;;;24.70;69.40;;;;;;5053784;28;20104;-71
2021/07/27 11:28:20;;;;;;;10.17;7.83;;;24.70;68.20;;;;;;5053808;28;20087;-70
2021/07/27 11:30:46;;;;;;;12.00;7.95;;;24.80;69.00;;;;;;5052770;28;20441;-69
2021/07/27 11:33:20;;;;;;;10.90;8.02;;;24.80;68.30;;;;;;5053854;28;20135;-70
2021/07/27 11:35:53;;;;;;;11.25;7.65;;;24.80;68.40;;;;;;5053669;28;20393;-69
2021/07/27 11:38:30;;;;;;;10.60;7.72;;;24.80;68.00;;;;;;5053633;28;20490;-70
2021/07/27 11:41:07;;;;;;;11.60;8.15;;;24.80;67.60;;;;;;5052534;28;20021;-71
2021/07/27 11:43:40;;;;;;;12.07;8.05;;;24.80;69.00;;;;;;5053735;28;20371;-70
2021/07/27 11:46:08;;;;;;;12.93;9.68;;;24.80;67.60;;;;;;5053335;28;20017;-70
2021/07/27 11:48:35;;;;;;;11.63;8.35;;;24.80;67.20;;;;;;5053499;28;20028;-70
2021/07/27 11:51:01;;;;;;;11.60;8.23;;;24.80;68.30;;;;;;5053471;28;20548;-70
2021/07/27 11:53:31;;;;;;;11.02;8.20;;;24.80;67.40;;;;;;5053586;28;20025;-70
2021/07/27 11:55:57;;;;;;;11.10;7.18;;;24.70;67.10;;;;;;5053213;28;20509;-70
2021/07/27 11:58:29;;;;;;;11.00;7.80;;;24.70;67.30;;;;;;5053296;28;20108;-70
2021/07/27 12:00:59;;;;;;;9.88;7.30;;;24.70;67.90;;;;;;5053354;28;20119;-69
2021/07/27 12:03:25;;;;;;;10.10;7.47;;;24.70;68.10;;;;;;5052797;28;20091;-71
2021/07/27 12:05:51;;;;;;;10.07;7.55;;;24.70;68.00;;;;;;5053031;28;20098;-70
2021/07/27 12:08:17;;;;;;;11.20;7.50;;;24.80;68.00;;;;;;5053168;28;20036;-72
2021/07/27 12:10:43;;;;;;;10.13;7.30;;;24.80;67.70;;;;;;5053207;28;20440;-72
2021/07/27 12:13:08;;;;;;;10.77;6.72;;;24.80;67.10;;;;;;5053154;28;20060;-69
2021/07/27 12:15:34;;;;;;;9.23;6.70;;;24.80;67.60;;;;;;5052727;28;20025;-70
2021/07/27 12:18:00;;;;;;;9.07;6.60;;;24.80;67.60;;;;;;5053102;28;20025;-71
2021/07/27 12:20:25;;;;;;;10.30;7.10;;;24.80;67.20;;;;;;5053021;28;20482;-71
2021/07/27 12:22:51;;;;;;;10.02;6.90;;;24.80;67.50;;;;;;5052899;28;20078;-70
2021/07/27 12:25:17;;;;;;;9.50;6.85;;;24.80;66.90;;;;;;5052604;28;20029;-70
2021/07/27 12:27:43;;;;;;;8.90;6.45;;;24.80;66.80;;;;;;5052434;28;20090;-70
2021/07/27 12:30:09;;;;;;;10.52;7.55;;;24.80;65.90;;;;;;5081394;22;20056;-71
2021/07/27 12:32:35;;;;;;;10.10;6.55;;;24.80;65.30;;;;;;5072608;28;20031;-71
2021/07/27 12:35:01;;;;;;;9.07;6.32;;;24.70;64.70;;;;;;5054371;28;20021;-70
2021/07/27 12:37:26;;;;;;;9.30;6.43;;;24.70;65.10;;;;;;5072553;28;20478;-71
2021/07/27 12:39:52;;;;;;;11.75;7.88;;;24.70;66.00;;;;;;5062823;28;20394;-71
2021/07/27 12:42:17;;;;;;;8.90;6.05;;;24.80;66.10;;;;;;5071268;28;20464;-70
2021/07/27 12:44:43;;;;;;;9.45;6.90;;;24.80;67.00;;;;;;5070915;28;20025;-70
2021/07/27 12:47:09;;;;;;;8.35;5.78;;;24.70;66.30;;;;;;5072465;28;20112;-71
2021/07/27 12:49:35;;;;;;;10.05;6.65;;;24.80;66.90;;;;;;5072246;28;20028;-70
2021/07/27 12:52:03;;;;;;;8.65;5.63;;;24.70;66.50;;;;;;5072379;28;20032;-71
2021/07/27 12:54:29;;;;;;;9.70;6.93;;;24.70;66.40;;;;;;5072034;28;20016;-71
2021/07/27 12:56:55;;;;;;;9.48;6.30;;;24.70;66.00;;;;;;5072527;28;20028;-71